createdAt,value
2018-11-01T00:01:34.056Z,3.20
2018-11-01T00:04:03.034Z,2.87
2018-11-01T00:06:31.090Z,2.80
2018-11-01T00:08:59.494Z,2.97
2018-11-01T00:11:27.666Z,3.13
2018-11-01T00:13:55.735Z,3.00
2018-11-01T00:16:23.805Z,2.90
2018-11-01T00:18:52.185Z,2.80
2018-11-01T00:21:20.257Z,3.00
2018-11-01T00:23:48.335Z,3.07
2018-11-01T00:26:16.427Z,2.97
2018-11-01T00:28:44.478Z,2.60
2018-11-01T00:31:12.557Z,2.87
2018-11-01T00:33:40.633Z,3.00
2018-11-01T00:36:08.722Z,3.33
2018-11-01T00:38:37.051Z,2.70
2018-11-01T00:41:05.430Z,2.80
2018-11-01T00:43:33.498Z,3.27
2018-11-01T00:46:01.592Z,3.10
2018-11-01T00:48:29.740Z,3.57
2018-11-01T00:50:57.794Z,3.00
2018-11-01T00:53:25.856Z,3.10
2018-11-01T00:55:53.926Z,3.10
2018-11-01T00:58:21.993Z,2.70
2018-11-01T01:00:50.053Z,3.10
2018-11-01T01:03:18.157Z,2.80
2018-11-01T01:05:46.222Z,3.03
2018-11-01T01:08:14.274Z,2.97
2018-11-01T01:10:42.380Z,3.33
2018-11-01T01:13:10.437Z,3.00
2018-11-01T01:15:38.515Z,3.00
2018-11-01T01:18:06.586Z,3.50
2018-11-01T01:20:34.650Z,3.13
2018-11-01T01:23:02.715Z,2.97
2018-11-01T01:25:30.779Z,3.10
2018-11-01T01:27:59.099Z,2.93
2018-11-01T01:30:27.179Z,3.27
2018-11-01T01:32:55.250Z,3.07
2018-11-01T01:35:23.317Z,3.10
2018-11-01T01:37:51.396Z,3.20
2018-11-01T01:40:19.786Z,3.40
2018-11-01T01:42:52.874Z,3.13
2018-11-01T01:45:21.199Z,3.20
2018-11-01T01:47:49.264Z,3.37
2018-11-01T01:50:18.029Z,3.93
2018-11-01T01:52:46.494Z,3.83
2018-11-01T01:55:14.574Z,3.70
2018-11-01T01:57:42.749Z,3.63
2018-11-01T02:00:13.168Z,4.00
2018-11-01T02:02:43.077Z,3.53
2018-11-01T02:05:11.470Z,3.23
2018-11-01T02:07:39.737Z,3.33
2018-11-01T02:10:09.722Z,3.13
2018-11-01T02:12:38.036Z,3.00
2018-11-01T02:15:08.320Z,4.03
2018-11-01T02:17:36.396Z,3.40
2018-11-01T02:20:06.601Z,3.47
2018-11-01T02:22:34.698Z,3.40
2018-11-01T02:25:03.015Z,3.03
2018-11-01T02:28:40.554Z,3.80
2018-11-01T02:31:08.619Z,3.00
2018-11-01T02:33:36.694Z,3.40
2018-11-01T02:36:05.095Z,4.10
2018-11-01T02:38:33.258Z,3.47
2018-11-01T02:41:01.215Z,3.30
2018-11-01T02:43:29.283Z,3.30
2018-11-01T02:45:58.270Z,3.33
2018-11-01T02:48:26.334Z,3.30
2018-11-01T02:50:54.407Z,3.37
2018-11-01T02:53:22.463Z,3.03
2018-11-01T02:55:50.536Z,3.50
2018-11-01T02:58:18.659Z,3.20
2018-11-01T03:00:46.698Z,3.27
2018-11-01T03:03:14.783Z,3.40
2018-11-01T03:05:42.851Z,3.20
2018-11-01T03:08:10.916Z,2.80
2018-11-01T03:10:39.013Z,3.13
2018-11-01T03:13:07.071Z,2.90
2018-11-01T03:15:35.139Z,2.80
2018-11-01T03:18:03.233Z,3.10
2018-11-01T03:20:31.286Z,2.97
2018-11-01T03:22:59.372Z,3.13
2018-11-01T03:25:27.423Z,3.10
2018-11-01T03:27:55.479Z,3.00
2018-11-01T03:30:23.540Z,2.90
2018-11-01T03:32:51.613Z,3.50
2018-11-01T03:35:19.731Z,2.73
2018-11-01T03:37:47.729Z,3.10
2018-11-01T03:40:15.835Z,3.40
2018-11-01T03:42:43.886Z,3.00
2018-11-01T03:45:13.072Z,3.67
2018-11-01T03:47:41.771Z,2.70
2018-11-01T03:50:10.212Z,3.03
2018-11-01T03:52:38.269Z,3.20
2018-11-01T03:55:07.519Z,3.13
2018-11-01T03:57:35.602Z,3.47
2018-11-01T04:00:03.825Z,2.80
2018-11-01T04:02:31.896Z,3.00
2018-11-01T04:04:59.970Z,3.10
2018-11-01T04:07:28.024Z,2.93
2018-11-01T04:09:56.103Z,2.70
2018-11-01T04:12:24.183Z,2.70
2018-11-01T04:14:52.267Z,2.77
2018-11-01T04:17:20.313Z,2.90
2018-11-01T04:19:48.378Z,2.83
2018-11-01T04:22:16.468Z,2.93
2018-11-01T04:24:44.541Z,3.17
2018-11-01T04:27:12.615Z,3.13
2018-11-01T04:29:40.686Z,3.13
2018-11-01T04:32:08.762Z,2.83
2018-11-01T04:34:36.834Z,3.50
2018-11-01T04:37:05.075Z,3.10
2018-11-01T04:39:33.138Z,3.57
2018-11-01T04:42:01.211Z,3.47
2018-11-01T04:44:29.303Z,3.60
2018-11-01T04:46:57.364Z,3.70
2018-11-01T04:49:25.420Z,3.63
2018-11-01T04:51:53.494Z,5.27
2018-11-01T04:54:21.575Z,3.70
2018-11-01T04:56:49.652Z,3.20
2018-11-01T04:59:17.754Z,4.17
2018-11-01T05:01:45.833Z,2.80
2018-11-01T05:04:13.892Z,2.73
2018-11-01T05:06:42.346Z,3.03
2018-11-01T05:09:10.350Z,2.30
2018-11-01T05:11:38.393Z,2.33
2018-11-01T05:14:06.471Z,2.47
2018-11-01T05:16:34.539Z,2.70
2018-11-01T05:19:02.835Z,2.67
2018-11-01T05:21:30.886Z,3.23
2018-11-01T05:24:00.868Z,3.33
2018-11-01T05:26:29.681Z,2.80
2018-11-01T05:28:57.779Z,2.50
2018-11-01T05:31:26.374Z,2.47
2018-11-01T05:33:54.459Z,2.60
2018-11-01T05:36:22.526Z,2.50
2018-11-01T05:38:50.623Z,2.10
2018-11-01T05:41:18.715Z,2.60
2018-11-01T05:43:47.042Z,3.27
2018-11-01T05:46:15.127Z,2.43
2018-11-01T05:48:43.256Z,2.43
2018-11-01T05:51:11.347Z,2.63
2018-11-01T05:53:39.406Z,2.40
2018-11-01T05:56:07.473Z,2.40
2018-11-01T05:58:35.549Z,2.53
2018-11-01T06:01:06.011Z,2.57
2018-11-01T06:03:34.066Z,2.57
2018-11-01T06:06:02.132Z,2.77
2018-11-01T06:08:33.164Z,3.17
2018-11-01T06:11:01.227Z,2.90
2018-11-01T06:13:29.289Z,2.93
2018-11-01T06:15:57.346Z,2.23
2018-11-01T06:18:25.415Z,2.97
2018-11-01T06:20:53.754Z,2.90
2018-11-01T06:23:21.915Z,2.80
2018-11-01T06:25:49.987Z,2.70
2018-11-01T06:28:18.091Z,2.93
2018-11-01T06:30:46.144Z,2.50
2018-11-01T06:33:14.229Z,3.00
2018-11-01T06:35:46.498Z,2.57
2018-11-01T06:38:14.779Z,2.77
2018-11-01T06:40:42.843Z,2.53
2018-11-01T06:43:10.906Z,2.50
2018-11-01T06:45:39.077Z,2.57
2018-11-01T06:48:07.398Z,2.60
2018-11-01T06:50:35.483Z,2.60
2018-11-01T06:53:03.558Z,2.87
2018-11-01T06:55:31.970Z,2.77
2018-11-01T06:58:00.068Z,2.47
2018-11-01T07:00:28.135Z,2.60
2018-11-01T07:02:56.292Z,2.90
2018-11-01T07:05:24.391Z,3.17
2018-11-01T07:07:52.461Z,2.73
2018-11-01T07:10:20.518Z,2.37
2018-11-01T07:12:48.656Z,2.50
2018-11-01T07:15:17.091Z,3.27
2018-11-01T07:17:45.277Z,3.40
2018-11-01T07:20:14.459Z,3.50
2018-11-01T07:22:43.089Z,3.03
2018-11-01T07:25:12.457Z,2.87
2018-11-01T07:27:40.750Z,2.30
2018-11-01T07:30:11.366Z,2.33
2018-11-01T07:32:39.526Z,3.20
2018-11-01T07:35:08.051Z,3.00
2018-11-01T07:37:37.038Z,2.90
2018-11-01T07:40:06.229Z,3.00
2018-11-01T07:42:34.215Z,3.10
2018-11-01T07:45:02.309Z,2.90
2018-11-01T07:47:30.371Z,2.37
2018-11-01T07:49:58.434Z,2.43
2018-11-01T07:52:26.645Z,2.53
2018-11-01T07:54:54.711Z,2.87
2018-11-01T07:57:22.804Z,3.00
2018-11-01T07:59:50.991Z,2.60
2018-11-01T08:02:19.056Z,3.00
2018-11-01T08:04:47.108Z,2.70
2018-11-01T08:07:15.223Z,2.53
2018-11-01T08:09:43.320Z,2.37
2018-11-01T08:12:11.378Z,2.17
2018-11-01T08:14:39.475Z,2.33
2018-11-01T08:17:07.882Z,2.40
2018-11-01T08:19:36.215Z,2.07
2018-11-01T08:22:04.787Z,2.70
2018-11-01T08:24:32.867Z,2.77
2018-11-01T08:27:00.949Z,2.40
2018-11-01T08:29:29.015Z,2.40
2018-11-01T08:31:57.082Z,2.40
2018-11-01T08:34:25.155Z,2.00
2018-11-01T08:36:53.210Z,2.43
2018-11-01T08:39:21.321Z,2.43
2018-11-01T08:41:49.387Z,2.53
2018-11-01T08:44:17.471Z,2.77
2018-11-01T08:46:45.574Z,3.40
2018-11-01T08:49:14.051Z,2.53
2018-11-01T08:51:42.071Z,2.50
2018-11-01T08:54:10.139Z,2.47
2018-11-01T08:56:38.194Z,2.47
2018-11-01T08:59:06.499Z,2.97
2018-11-01T09:01:34.821Z,3.00
2018-11-01T09:04:03.024Z,2.77
2018-11-01T09:06:31.025Z,2.93
2018-11-01T09:08:59.111Z,2.60
2018-11-01T09:11:27.283Z,2.63
2018-11-01T09:13:55.338Z,2.57
2018-11-01T09:16:23.417Z,3.00
2018-11-01T09:18:51.466Z,2.70
2018-11-01T09:21:19.530Z,2.90
2018-11-01T09:23:47.635Z,2.30
2018-11-01T09:26:15.686Z,2.70
2018-11-01T09:28:43.768Z,2.80
2018-11-01T09:31:11.928Z,2.60
2018-11-01T09:33:40.225Z,2.60
2018-11-01T09:36:08.297Z,2.73
2018-11-01T09:38:36.354Z,2.37
2018-11-01T09:41:04.466Z,2.43
2018-11-01T09:43:32.537Z,2.67
2018-11-01T09:46:00.640Z,2.57
2018-11-01T09:48:28.695Z,2.90
2018-11-01T09:50:56.756Z,3.57
2018-11-01T09:53:24.851Z,3.50
2018-11-01T09:55:53.055Z,3.00
2018-11-01T09:58:21.000Z,2.90
2018-11-01T10:00:49.117Z,3.03
2018-11-01T10:03:17.188Z,3.33
2018-11-01T10:05:45.242Z,2.93
2018-11-01T10:08:13.330Z,3.30
2018-11-01T10:10:41.391Z,3.00
2018-11-01T10:13:09.446Z,3.30
2018-11-01T10:15:37.784Z,2.83
2018-11-01T10:18:06.106Z,3.10
2018-11-01T10:20:33.676Z,3.00
2018-11-01T10:23:01.798Z,3.03
2018-11-01T10:25:30.056Z,3.20
2018-11-01T10:27:57.983Z,3.10
2018-11-01T10:30:26.059Z,3.50
2018-11-01T10:32:54.146Z,3.03
2018-11-01T10:35:22.250Z,3.27
2018-11-01T10:37:50.331Z,3.00
2018-11-01T10:40:19.725Z,3.67
2018-11-01T10:42:47.786Z,3.13
2018-11-01T10:45:15.946Z,3.27
2018-11-01T10:47:44.109Z,2.80
2018-11-01T10:50:14.677Z,3.03
2018-11-01T10:52:42.788Z,3.17
2018-11-01T10:55:11.811Z,3.20
2018-11-01T10:57:39.918Z,2.70
2018-11-01T11:00:13.660Z,3.30
2018-11-01T11:02:41.697Z,3.40
2018-11-01T11:05:09.795Z,2.83
2018-11-01T11:07:37.867Z,3.13
2018-11-01T11:10:06.727Z,3.70
2018-11-01T11:12:34.798Z,3.17
2018-11-01T11:15:03.163Z,3.23
2018-11-01T11:17:31.250Z,3.07
2018-11-01T11:19:59.397Z,3.57
2018-11-01T11:22:27.467Z,3.70
2018-11-01T11:24:55.551Z,3.80
2018-11-01T11:27:23.651Z,4.03
2018-11-01T11:29:51.786Z,5.20
2018-11-01T11:32:19.843Z,4.93
2018-11-01T11:34:47.903Z,5.53
2018-11-01T11:37:15.982Z,5.10
2018-11-01T11:39:44.167Z,4.93
2018-11-01T11:42:12.167Z,5.50
2018-11-01T11:44:40.287Z,5.13
2018-11-01T11:47:08.366Z,4.90
2018-11-01T11:49:36.457Z,4.77
2018-11-01T11:52:04.814Z,4.87
2018-11-01T11:54:32.901Z,4.97
2018-11-01T11:57:00.998Z,4.67
2018-11-01T11:59:29.047Z,5.20
2018-11-01T12:01:57.116Z,5.53
2018-11-01T12:04:25.184Z,4.97
2018-11-01T12:06:53.241Z,5.07
2018-11-01T12:09:21.333Z,4.87
2018-11-01T12:11:49.392Z,4.80
2018-11-01T12:14:17.595Z,4.93
2018-11-01T12:16:45.875Z,4.97
2018-11-01T12:19:13.988Z,5.20
2018-11-01T12:21:42.066Z,4.50
2018-11-01T12:24:10.131Z,4.23
2018-11-01T12:26:38.207Z,4.53
2018-11-01T12:29:06.778Z,4.27
2018-11-01T12:31:34.750Z,4.43
2018-11-01T12:34:04.850Z,4.10
2018-11-01T12:36:32.933Z,4.27
2018-11-01T12:39:00.995Z,4.60
2018-11-01T12:41:29.410Z,4.30
2018-11-01T12:43:57.423Z,4.37
2018-11-01T12:46:25.492Z,3.77
2018-11-01T12:48:53.564Z,4.00
2018-11-01T12:51:21.636Z,3.67
2018-11-01T12:53:49.729Z,4.50
2018-11-01T12:56:17.809Z,3.83
2018-11-01T12:58:45.861Z,4.03
2018-11-01T13:01:13.967Z,3.73
2018-11-01T13:03:42.190Z,4.07
2018-11-01T13:06:10.472Z,4.13
2018-11-01T13:08:38.554Z,3.83
2018-11-01T13:11:06.612Z,4.10
2018-11-01T13:13:34.693Z,4.57
2018-11-01T13:16:02.786Z,4.17
2018-11-01T13:18:30.869Z,4.00
2018-11-01T13:20:58.955Z,3.90
2018-11-01T13:23:27.016Z,3.47
2018-11-01T13:25:55.104Z,3.63
2018-11-01T13:28:23.247Z,4.10
2018-11-01T13:30:51.337Z,4.37
2018-11-01T13:33:19.423Z,4.20
2018-11-01T13:35:47.512Z,3.80
2018-11-01T13:38:15.615Z,3.83
2018-11-01T13:40:44.252Z,4.03
2018-11-01T13:43:11.879Z,4.30
2018-11-01T13:45:39.978Z,4.50
2018-11-01T13:48:08.258Z,5.00
2018-11-01T13:50:36.148Z,4.53
2018-11-01T13:53:04.720Z,4.80
2018-11-01T13:55:32.805Z,5.00
2018-11-01T13:58:00.883Z,4.80
2018-11-01T14:00:28.983Z,5.23
2018-11-01T14:02:57.047Z,4.50
2018-11-01T14:05:25.203Z,5.13
2018-11-01T14:07:53.295Z,5.30
2018-11-01T14:10:21.371Z,5.00
2018-11-01T14:12:49.497Z,5.07
2018-11-01T14:15:18.010Z,5.20
2018-11-01T14:17:45.686Z,5.70
2018-11-01T14:20:14.220Z,5.20
2018-11-01T14:22:42.313Z,5.10
2018-11-01T14:25:11.446Z,5.40
2018-11-01T14:27:39.538Z,5.77
2018-11-01T14:30:09.846Z,5.23
2018-11-01T14:32:38.403Z,5.57
2018-11-01T14:35:06.787Z,5.57
2018-11-01T14:37:34.909Z,5.87
2018-11-01T14:40:03.199Z,6.00
2018-11-01T14:42:31.306Z,5.10
2018-11-01T14:44:59.473Z,5.77
2018-11-01T14:47:27.559Z,5.50
2018-11-01T14:49:55.640Z,5.37
2018-11-01T14:52:24.018Z,5.87
2018-11-01T14:54:53.051Z,5.70
2018-11-01T14:57:21.716Z,5.63
2018-11-01T14:59:49.171Z,5.93
2018-11-01T15:02:16.102Z,6.10
2018-11-01T15:04:44.151Z,5.87
2018-11-01T15:07:12.356Z,6.03
2018-11-01T15:09:40.480Z,5.87
2018-11-01T15:12:08.600Z,5.37
2018-11-01T15:14:36.704Z,5.40
2018-11-01T15:17:04.998Z,5.90
2018-11-01T15:19:33.080Z,6.10
2018-11-01T15:22:01.155Z,5.80
2018-11-01T15:24:29.216Z,5.43
2018-11-01T15:26:57.289Z,5.60
2018-11-01T15:29:25.381Z,5.07
2018-11-01T15:31:53.460Z,5.60
2018-11-01T15:34:21.870Z,5.23
2018-11-01T15:36:49.943Z,4.30
2018-11-01T15:39:18.004Z,5.60
2018-11-01T15:41:50.092Z,6.33
2018-11-01T15:44:18.175Z,4.80
2018-11-01T15:46:46.639Z,5.33
2018-11-01T15:49:14.728Z,4.57
2018-11-01T15:51:42.794Z,4.57
2018-11-01T15:54:10.955Z,4.60
2018-11-01T15:56:39.053Z,4.50
2018-11-01T15:59:07.408Z,4.23
2018-11-01T16:01:35.507Z,4.13
2018-11-01T16:04:03.673Z,4.03
2018-11-01T16:06:31.779Z,4.23
2018-11-01T16:08:59.910Z,4.40
2018-11-01T16:11:28.271Z,3.80
2018-11-01T16:13:56.407Z,3.77
2018-11-01T16:16:24.547Z,4.10
2018-11-01T16:18:52.651Z,3.97
2018-11-01T16:21:20.734Z,3.90
2018-11-01T16:23:48.832Z,4.07
2018-11-01T16:26:16.899Z,3.80
2018-11-01T16:28:44.971Z,3.77
2018-11-01T16:31:13.055Z,3.53
2018-11-01T16:33:41.146Z,3.73
2018-11-01T16:36:09.231Z,3.97
2018-11-01T16:38:37.295Z,3.53
2018-11-01T16:41:05.819Z,4.00
2018-11-01T16:43:33.915Z,4.03
2018-11-01T16:46:01.983Z,3.90
2018-11-01T16:48:30.326Z,3.20
2018-11-01T16:50:59.337Z,3.60
2018-11-01T16:53:27.336Z,3.47
2018-11-01T16:55:55.398Z,4.00
2018-11-01T16:58:23.470Z,4.17
2018-11-01T17:00:51.554Z,3.40
2018-11-01T17:03:19.644Z,3.63
2018-11-01T17:05:47.755Z,4.30
2018-11-01T17:08:15.830Z,3.53
2018-11-01T17:10:43.934Z,3.43
2018-11-01T17:13:12.050Z,3.07
2018-11-01T17:15:40.107Z,3.30
2018-11-01T17:18:08.175Z,4.07
2018-11-01T17:20:36.250Z,3.70
2018-11-01T17:23:04.419Z,3.67
2018-11-01T17:25:32.543Z,3.80
2018-11-01T17:28:00.623Z,3.80
2018-11-01T17:30:28.702Z,3.40
2018-11-01T17:32:57.013Z,3.70
2018-11-01T17:35:25.084Z,4.07
2018-11-01T17:37:53.159Z,3.80
2018-11-01T17:40:21.228Z,4.30
2018-11-01T17:42:49.318Z,3.80
2018-11-01T17:45:17.430Z,3.80
2018-11-01T17:47:45.447Z,3.37
2018-11-01T17:50:14.909Z,3.70
2018-11-01T17:52:43.236Z,4.00
2018-11-01T17:55:11.348Z,3.70
2018-11-01T17:57:39.971Z,4.37
2018-11-01T18:00:10.032Z,4.57
2018-11-01T18:02:39.150Z,4.23
2018-11-01T18:05:07.564Z,4.33
2018-11-01T18:07:35.695Z,4.07
2018-11-01T18:10:03.788Z,3.97
2018-11-01T18:12:31.895Z,4.10
2018-11-01T18:15:00.242Z,4.20
2018-11-01T18:17:28.322Z,3.67
2018-11-01T18:19:56.400Z,4.20
2018-11-01T18:22:24.580Z,4.27
2018-11-01T18:24:52.656Z,4.97
2018-11-01T18:27:20.981Z,4.80
2018-11-01T18:29:49.056Z,4.50
2018-11-01T18:32:17.126Z,4.13
2018-11-01T18:34:45.407Z,4.80
2018-11-01T18:37:13.359Z,5.07
2018-11-01T18:39:41.756Z,5.27
2018-11-01T18:42:09.855Z,4.37
2018-11-01T18:44:37.941Z,4.90
2018-11-01T18:47:06.105Z,4.20
2018-11-01T18:49:34.192Z,5.17
2018-11-01T18:52:02.263Z,4.83
2018-11-01T18:54:30.365Z,4.80
2018-11-01T18:56:58.450Z,4.57
2018-11-01T18:59:26.534Z,5.00
2018-11-01T19:01:54.602Z,5.33
2018-11-01T19:04:22.898Z,4.33
2018-11-01T19:06:51.022Z,4.37
2018-11-01T19:09:19.054Z,4.83
2018-11-01T19:11:47.131Z,5.33
2018-11-01T19:14:15.313Z,5.37
2018-11-01T19:16:43.356Z,4.43
2018-11-01T19:19:11.447Z,4.97
2018-11-01T19:21:39.578Z,5.43
2018-11-01T19:24:07.608Z,5.10
2018-11-01T19:26:35.697Z,4.73
2018-11-01T19:29:03.780Z,5.27
2018-11-01T19:31:31.980Z,5.23
2018-11-01T19:34:00.090Z,5.20
2018-11-01T19:36:28.134Z,5.23
2018-11-01T19:38:56.205Z,4.83
2018-11-01T19:41:24.647Z,5.00
2018-11-01T19:43:52.703Z,5.50
2018-11-01T19:46:21.007Z,5.17
2018-11-01T19:48:49.130Z,5.23
2018-11-01T19:51:17.228Z,5.37
2018-11-01T19:53:45.299Z,4.67
2018-11-01T19:56:13.563Z,5.37
2018-11-01T19:58:41.910Z,5.47
2018-11-01T20:01:09.995Z,6.20
2018-11-01T20:03:38.115Z,5.60
2018-11-01T20:06:06.171Z,6.57
2018-11-01T20:08:34.359Z,6.50
2018-11-01T20:11:02.476Z,5.63
2018-11-01T20:13:30.565Z,6.00
2018-11-01T20:15:58.664Z,5.60
2018-11-01T20:18:26.812Z,5.57
2018-11-01T20:20:54.883Z,5.03
2018-11-01T20:23:22.979Z,5.87
2018-11-01T20:25:51.227Z,4.53
2018-11-01T20:28:19.199Z,5.23
2018-11-01T20:30:47.280Z,5.47
2018-11-01T20:33:15.344Z,5.40
2018-11-01T20:35:43.500Z,5.10
2018-11-01T20:38:11.731Z,5.37
2018-11-01T20:40:39.682Z,5.30
2018-11-01T20:43:07.772Z,5.23
2018-11-01T20:45:35.827Z,6.07
2018-11-01T20:48:03.901Z,5.10
2018-11-01T20:50:31.994Z,5.80
2018-11-01T20:53:00.271Z,4.97
2018-11-01T20:55:28.359Z,5.40
2018-11-01T20:57:56.597Z,5.63
2018-11-01T21:00:24.605Z,5.03
2018-11-01T21:02:52.663Z,5.33
2018-11-01T21:05:20.769Z,5.53
2018-11-01T21:07:48.839Z,5.07
2018-11-01T21:10:16.910Z,5.70
2018-11-01T21:12:45.002Z,4.90
2018-11-01T21:15:14.010Z,5.67
2018-11-01T21:17:42.135Z,4.83
2018-11-01T21:20:10.635Z,5.43
2018-11-01T21:22:38.771Z,5.50
2018-11-01T21:25:07.572Z,5.10
2018-11-01T21:27:35.662Z,5.73
2018-11-01T21:30:04.042Z,5.93
2018-11-01T21:32:32.123Z,6.57
2018-11-01T21:35:00.422Z,6.60
2018-11-01T21:37:28.487Z,6.87
2018-11-01T21:39:56.571Z,6.07
2018-11-01T21:42:24.640Z,6.23
2018-11-01T21:44:52.731Z,6.27
2018-11-01T21:47:20.795Z,6.97
2018-11-01T21:49:48.871Z,6.60
2018-11-01T21:52:16.966Z,7.27
2018-11-01T21:54:45.041Z,7.90
2018-11-01T21:57:13.143Z,7.57
2018-11-01T21:59:41.236Z,6.90
2018-11-01T22:02:09.324Z,6.80
2018-11-01T22:04:37.402Z,6.70
2018-11-01T22:07:05.673Z,7.97
2018-11-01T22:09:33.829Z,8.37
2018-11-01T22:12:01.910Z,8.90
2018-11-01T22:14:29.931Z,8.27
2018-11-01T22:16:58.038Z,7.33
2018-11-01T22:19:26.106Z,7.60
2018-11-01T22:21:54.244Z,8.60
2018-11-01T22:24:22.310Z,8.10
2018-11-01T22:26:50.420Z,9.17
2018-11-01T22:29:18.538Z,9.20
2018-11-01T22:31:46.611Z,8.00
2018-11-01T22:34:14.694Z,9.13
2018-11-01T22:36:42.766Z,9.87
2018-11-01T22:39:11.243Z,9.77
2018-11-01T22:41:39.326Z,8.63
2018-11-01T22:44:07.733Z,9.50
2018-11-01T22:46:35.811Z,9.13
2018-11-01T22:49:03.941Z,9.40
2018-11-01T22:51:32.015Z,9.20
2018-11-01T22:54:00.191Z,8.77
2018-11-01T22:56:28.504Z,9.43
2018-11-01T22:58:56.583Z,10.03
2018-11-01T23:01:24.656Z,9.27
2018-11-01T23:03:52.742Z,10.47
2018-11-01T23:06:20.834Z,9.93
2018-11-01T23:08:48.962Z,10.07
2018-11-01T23:11:17.035Z,10.53
2018-11-01T23:13:45.154Z,10.30
2018-11-01T23:16:13.229Z,10.53
2018-11-01T23:18:41.311Z,10.87
2018-11-01T23:21:12.190Z,10.07
2018-11-01T23:23:40.270Z,10.10
2018-11-01T23:26:08.410Z,11.60
2018-11-01T23:28:36.430Z,10.70
2018-11-01T23:31:04.565Z,10.43
2018-11-01T23:33:32.663Z,9.87
2018-11-01T23:36:02.923Z,10.47
2018-11-01T23:38:36.987Z,10.43
2018-11-01T23:41:11.086Z,10.93
2018-11-01T23:43:44.632Z,11.40
2018-11-01T23:46:18.076Z,10.33
2018-11-01T23:48:51.013Z,12.07
2018-11-01T23:51:19.381Z,11.33
2018-11-01T23:53:49.776Z,11.80
2018-11-01T23:56:18.308Z,11.77
2018-11-01T23:58:46.370Z,11.93
